createdAt,value
2019-05-30T00:00:15.969Z,1.90
2019-05-30T00:02:32.629Z,1.60
2019-05-30T00:05:02.570Z,1.30
2019-05-30T00:07:31.362Z,1.93
2019-05-30T00:10:00.567Z,2.30
2019-05-30T00:12:29.170Z,2.10
2019-05-30T00:14:58.601Z,1.87
2019-05-30T00:17:27.229Z,1.90
2019-05-30T00:19:56.754Z,2.33
2019-05-30T00:22:25.328Z,1.63
2019-05-30T00:24:53.762Z,2.00
2019-05-30T00:27:22.191Z,2.00
2019-05-30T00:29:50.744Z,2.47
2019-05-30T00:32:19.180Z,1.80
2019-05-30T00:34:47.698Z,2.33
2019-05-30T00:37:16.146Z,1.73
2019-05-30T00:39:44.571Z,2.53
2019-05-30T00:42:13.372Z,2.30
2019-05-30T00:44:41.841Z,2.30
2019-05-30T00:47:10.281Z,2.20
2019-05-30T00:49:38.704Z,1.80
2019-05-30T00:52:07.232Z,2.10
2019-05-30T00:54:35.665Z,1.80
2019-05-30T00:57:04.924Z,1.90
2019-05-30T00:59:33.562Z,2.20
2019-05-30T01:02:02.812Z,2.40
2019-05-30T01:04:31.448Z,2.63
2019-05-30T01:07:00.917Z,2.37
2019-05-30T01:09:29.594Z,2.63
2019-05-30T01:11:59.101Z,2.83
2019-05-30T01:14:27.932Z,2.67
2019-05-30T01:16:57.087Z,2.47
2019-05-30T01:19:25.640Z,2.40
2019-05-30T01:21:54.093Z,2.63
2019-05-30T01:24:22.523Z,3.07
2019-05-30T01:26:51.040Z,2.60
2019-05-30T01:29:19.514Z,2.13
2019-05-30T01:31:48.012Z,2.10
2019-05-30T01:34:16.523Z,2.83
2019-05-30T01:36:44.989Z,2.30
2019-05-30T01:39:13.419Z,2.43
2019-05-30T01:41:41.847Z,3.03
2019-05-30T01:44:10.327Z,2.97
2019-05-30T01:46:38.830Z,2.27
2019-05-30T01:49:08.649Z,2.73
2019-05-30T01:51:37.356Z,3.10
2019-05-30T01:54:06.639Z,2.87
2019-05-30T01:56:35.142Z,3.37
2019-05-30T01:59:04.785Z,3.63
2019-05-30T02:01:33.294Z,3.10
2019-05-30T02:04:03.291Z,3.60
2019-05-30T02:06:31.978Z,3.57
2019-05-30T02:09:01.091Z,3.27
2019-05-30T02:11:29.748Z,3.00
2019-05-30T02:13:59.466Z,3.40
2019-05-30T02:16:28.161Z,3.27
2019-05-30T02:18:56.610Z,3.20
2019-05-30T02:21:25.074Z,4.43
2019-05-30T02:23:53.515Z,3.07
2019-05-30T02:26:21.953Z,3.40
2019-05-30T02:28:50.556Z,3.07
2019-05-30T02:31:37.660Z,3.27
2019-05-30T02:33:49.161Z,3.23
2019-05-30T02:36:17.781Z,3.10
2019-05-30T02:38:46.212Z,3.07
2019-05-30T02:41:14.719Z,3.30
2019-05-30T02:43:43.746Z,3.27
2019-05-30T02:46:12.688Z,3.50
2019-05-30T02:48:57.270Z,3.50
2019-05-30T02:51:12.683Z,3.20
2019-05-30T02:53:41.378Z,3.20
2019-05-30T02:56:10.761Z,2.73
2019-05-30T02:58:40.136Z,2.87
2019-05-30T03:01:09.279Z,2.80
2019-05-30T03:03:38.736Z,3.03
2019-05-30T03:06:09.265Z,3.10
2019-05-30T03:08:37.611Z,3.40
2019-05-30T03:11:07.893Z,3.47
2019-05-30T03:13:36.741Z,3.10
2019-05-30T03:16:07.492Z,3.50
2019-05-30T03:18:35.567Z,2.90
2019-05-30T03:21:05.711Z,2.90
2019-05-30T03:23:34.559Z,3.00
2019-05-30T03:26:04.778Z,2.70
2019-05-30T03:28:33.134Z,3.37
2019-05-30T03:31:05.930Z,3.17
2019-05-30T03:33:40.870Z,3.00
2019-05-30T03:36:09.010Z,3.07
2019-05-30T03:38:33.706Z,3.67
2019-05-30T03:41:02.271Z,3.47
2019-05-30T03:43:30.794Z,4.20
2019-05-30T03:45:59.355Z,3.03
2019-05-30T03:48:29.926Z,4.43
2019-05-30T03:51:00.501Z,3.57
2019-05-30T03:53:29.368Z,2.93
2019-05-30T03:56:00.861Z,3.70
2019-05-30T03:58:44.399Z,4.03
2019-05-30T04:01:18.923Z,4.10
2019-05-30T04:03:50.921Z,3.70
2019-05-30T04:06:31.296Z,3.53
2019-05-30T04:09:04.569Z,4.13
2019-05-30T04:11:41.920Z,4.53
2019-05-30T04:14:15.741Z,4.30
2019-05-30T04:16:43.593Z,3.80
2019-05-30T04:19:13.139Z,3.73
2019-05-30T04:21:42.212Z,4.03
2019-05-30T04:24:12.345Z,3.77
2019-05-30T04:26:40.877Z,5.23
2019-05-30T04:29:15.051Z,4.07
2019-05-30T04:31:43.066Z,3.87
2019-05-30T04:34:12.575Z,4.10
2019-05-30T04:36:41.708Z,3.63
2019-05-30T04:39:11.322Z,3.90
2019-05-30T04:41:40.440Z,4.30
2019-05-30T04:44:09.788Z,4.03
2019-05-30T04:46:39.062Z,3.60
2019-05-30T04:49:07.567Z,4.27
2019-05-30T04:51:36.319Z,4.10
2019-05-30T04:54:04.998Z,3.97
2019-05-30T04:56:33.415Z,3.93
2019-05-30T04:59:01.916Z,4.03
2019-05-30T05:01:30.369Z,4.47
2019-05-30T05:03:58.871Z,4.80
2019-05-30T05:06:27.335Z,4.03
2019-05-30T05:08:55.757Z,3.87
2019-05-30T05:11:25.341Z,3.83
2019-05-30T05:13:54.028Z,3.77
2019-05-30T05:16:33.939Z,3.50
2019-05-30T05:18:52.609Z,4.10
2019-05-30T05:21:21.267Z,3.90
2019-05-30T05:23:49.765Z,3.70
2019-05-30T05:26:18.194Z,4.20
2019-05-30T05:28:46.663Z,3.33
2019-05-30T05:31:16.355Z,4.40
2019-05-30T05:33:56.099Z,3.90
2019-05-30T05:36:15.245Z,4.20
2019-05-30T05:38:43.736Z,4.00
2019-05-30T05:41:12.236Z,4.20
2019-05-30T05:43:40.849Z,4.90
2019-05-30T05:46:09.351Z,4.00
2019-05-30T05:48:37.777Z,3.97
2019-05-30T05:51:06.403Z,3.70
2019-05-30T05:53:34.879Z,4.20
2019-05-30T05:56:03.380Z,3.83
2019-05-30T05:58:31.837Z,4.10
2019-05-30T06:01:00.279Z,5.47
2019-05-30T06:03:28.714Z,3.80
2019-05-30T06:05:57.176Z,3.63
2019-05-30T06:08:25.938Z,4.63
2019-05-30T06:10:54.396Z,4.40
2019-05-30T06:13:23.047Z,3.83
2019-05-30T06:15:51.483Z,4.13
2019-05-30T06:18:20.222Z,3.97
2019-05-30T06:20:48.892Z,4.37
2019-05-30T06:23:17.415Z,3.47
2019-05-30T06:25:45.829Z,4.10
2019-05-30T06:28:14.374Z,4.40
2019-05-30T06:30:42.813Z,4.90
2019-05-30T06:33:11.250Z,4.60
2019-05-30T06:35:39.711Z,3.73
2019-05-30T06:38:08.213Z,3.67
2019-05-30T06:40:36.821Z,5.23
2019-05-30T06:43:05.386Z,3.93
2019-05-30T06:45:33.818Z,4.17
2019-05-30T06:48:02.250Z,5.00
2019-05-30T06:50:30.974Z,3.47
2019-05-30T06:52:59.422Z,3.90
2019-05-30T06:55:29.420Z,3.97
2019-05-30T06:57:58.146Z,3.27
2019-05-30T07:00:28.121Z,3.50
2019-05-30T07:02:56.850Z,3.20
2019-05-30T07:05:27.674Z,3.23
2019-05-30T07:07:55.614Z,3.53
2019-05-30T07:10:24.874Z,3.10
2019-05-30T07:12:53.418Z,3.60
2019-05-30T07:15:23.130Z,3.30
2019-05-30T07:17:51.695Z,3.40
2019-05-30T07:20:20.522Z,3.57
2019-05-30T07:22:48.957Z,3.60
2019-05-30T07:25:18.421Z,4.50
2019-05-30T07:27:46.913Z,4.10
2019-05-30T07:30:17.288Z,3.57
2019-05-30T07:32:45.722Z,3.90
2019-05-30T07:35:14.692Z,3.67
2019-05-30T07:37:46.415Z,3.53
2019-05-30T07:40:18.643Z,4.03
2019-05-30T07:42:44.180Z,3.73
2019-05-30T07:45:14.721Z,3.30
2019-05-30T07:47:43.218Z,4.07
2019-05-30T07:50:12.219Z,3.37
2019-05-30T07:52:41.310Z,3.53
2019-05-30T07:55:10.986Z,3.80
2019-05-30T07:57:41.340Z,3.03
2019-05-30T08:00:11.998Z,2.70
2019-05-30T08:02:40.502Z,3.40
2019-05-30T08:05:23.470Z,3.10
2019-05-30T08:07:40.080Z,3.20
2019-05-30T08:10:09.763Z,2.77
2019-05-30T08:12:38.519Z,3.70
2019-05-30T08:15:08.763Z,2.90
2019-05-30T08:17:37.891Z,3.30
2019-05-30T08:20:07.724Z,3.50
2019-05-30T08:22:36.296Z,3.40
2019-05-30T08:25:09.081Z,3.80
2019-05-30T08:27:38.673Z,3.10
2019-05-30T08:30:08.472Z,3.53
2019-05-30T08:32:37.014Z,3.70
2019-05-30T08:35:06.784Z,2.97
2019-05-30T08:37:35.247Z,2.70
2019-05-30T08:40:05.417Z,3.33
2019-05-30T08:42:33.868Z,2.77
2019-05-30T08:45:02.366Z,3.30
2019-05-30T08:47:31.860Z,2.37
2019-05-30T08:50:00.337Z,3.03
2019-05-30T08:52:30.262Z,2.60
2019-05-30T08:54:58.875Z,2.47
2019-05-30T08:57:27.358Z,2.80
2019-05-30T08:59:55.784Z,2.20
2019-05-30T09:02:24.282Z,3.67
2019-05-30T09:04:52.867Z,2.10
2019-05-30T09:07:21.393Z,2.10
2019-05-30T09:09:49.825Z,2.70
2019-05-30T09:12:18.296Z,2.30
2019-05-30T09:14:46.988Z,2.90
2019-05-30T09:17:15.596Z,3.03
2019-05-30T09:19:45.336Z,2.67
2019-05-30T09:22:14.019Z,1.87
2019-05-30T09:24:43.810Z,2.90
2019-05-30T09:27:12.465Z,2.13
2019-05-30T09:29:42.466Z,1.77
2019-05-30T09:32:11.400Z,1.77
2019-05-30T09:34:41.516Z,1.57
2019-05-30T09:37:10.161Z,1.27
2019-05-30T09:39:39.134Z,1.40
2019-05-30T09:42:08.553Z,1.30
2019-05-30T09:44:36.982Z,1.40
2019-05-30T09:47:06.663Z,0.90
2019-05-30T09:49:35.120Z,0.80
2019-05-30T09:52:03.647Z,1.10
2019-05-30T09:54:32.077Z,1.30
2019-05-30T09:57:00.841Z,1.33
2019-05-30T09:59:29.270Z,1.30
2019-05-30T10:01:57.706Z,1.10
2019-05-30T10:04:26.273Z,0.90
2019-05-30T10:06:54.717Z,0.80
2019-05-30T10:09:23.228Z,1.30
2019-05-30T10:11:51.755Z,0.70
2019-05-30T10:14:20.258Z,0.80
2019-05-30T10:16:54.437Z,0.80
2019-05-30T10:19:18.956Z,0.93
2019-05-30T10:21:48.907Z,1.03
2019-05-30T10:24:17.497Z,0.97
2019-05-30T10:26:47.134Z,8.20
2019-05-30T10:29:15.696Z,1.30
2019-05-30T10:31:45.009Z,1.00
2019-05-30T10:34:14.413Z,0.70
2019-05-30T10:36:44.496Z,0.73
2019-05-30T10:39:13.034Z,0.77
2019-05-30T10:41:43.221Z,0.60
2019-05-30T10:44:11.650Z,0.77
2019-05-30T10:46:40.093Z,0.80
2019-05-30T10:49:08.554Z,0.70
2019-05-30T10:51:37.058Z,0.97
2019-05-30T10:54:05.623Z,0.80
2019-05-30T10:56:34.212Z,1.17
2019-05-30T10:59:02.781Z,1.20
2019-05-30T11:01:31.291Z,0.60
2019-05-30T11:03:59.744Z,0.83
2019-05-30T11:06:34.475Z,0.93
2019-05-30T11:09:04.701Z,1.00
2019-05-30T11:11:33.136Z,1.10
2019-05-30T11:14:01.775Z,0.80
2019-05-30T11:16:30.232Z,1.20
2019-05-30T11:18:58.673Z,1.30
2019-05-30T11:21:27.117Z,0.67
2019-05-30T11:23:56.768Z,0.73
2019-05-30T11:26:25.296Z,0.80
2019-05-30T11:28:54.790Z,0.77
2019-05-30T11:31:23.399Z,0.87
2019-05-30T11:33:52.875Z,0.87
2019-05-30T11:36:21.337Z,0.70
2019-05-30T11:38:51.986Z,0.90
2019-05-30T11:41:20.749Z,1.00
2019-05-30T11:43:49.383Z,1.33
2019-05-30T11:46:17.850Z,0.80
2019-05-30T11:48:46.349Z,0.60
2019-05-30T11:51:14.928Z,0.80
2019-05-30T11:53:43.358Z,0.70
2019-05-30T11:56:11.790Z,0.77
2019-05-30T11:58:40.325Z,0.90
2019-05-30T12:01:08.824Z,0.90
2019-05-30T12:03:37.326Z,0.80
2019-05-30T12:06:05.949Z,1.00
2019-05-30T12:08:34.438Z,0.90
2019-05-30T12:11:02.885Z,0.70
2019-05-30T12:13:31.346Z,0.90
2019-05-30T12:15:59.772Z,1.10
2019-05-30T12:18:28.290Z,0.70
2019-05-30T12:20:57.800Z,1.40
2019-05-30T12:23:26.277Z,0.80
2019-05-30T12:25:55.920Z,0.90
2019-05-30T12:28:24.532Z,1.20
2019-05-30T12:30:59.050Z,1.20
2019-05-30T12:33:23.120Z,0.80
2019-05-30T12:35:52.404Z,1.43
2019-05-30T12:38:20.923Z,1.23
2019-05-30T12:40:49.360Z,1.27
2019-05-30T12:43:17.817Z,0.90
2019-05-30T12:45:46.250Z,0.93
2019-05-30T12:48:14.683Z,0.70
2019-05-30T12:50:43.154Z,1.40
2019-05-30T12:53:11.590Z,0.97
2019-05-30T12:55:40.029Z,0.90
2019-05-30T12:58:08.582Z,0.77
2019-05-30T13:00:38.471Z,0.83
2019-05-30T13:03:07.357Z,1.10
2019-05-30T13:05:35.940Z,0.90
2019-05-30T13:08:17.973Z,1.50
2019-05-30T13:10:34.786Z,1.00
2019-05-30T13:13:04.093Z,1.47
2019-05-30T13:15:32.605Z,1.30
2019-05-30T13:18:01.029Z,1.30
2019-05-30T13:20:29.781Z,0.87
2019-05-30T13:22:58.489Z,0.83
2019-05-30T13:25:27.158Z,0.93
2019-05-30T13:28:03.267Z,0.77
2019-05-30T13:30:27.048Z,0.90
2019-05-30T13:32:56.579Z,1.20
2019-05-30T13:35:25.304Z,0.87
2019-05-30T13:37:53.734Z,1.10
2019-05-30T13:40:25.394Z,1.33
2019-05-30T13:42:52.912Z,1.30
2019-05-30T13:45:21.484Z,0.83
2019-05-30T13:47:49.992Z,1.07
2019-05-30T13:50:18.803Z,1.20
2019-05-30T13:52:47.245Z,0.97
2019-05-30T13:55:15.815Z,1.40
2019-05-30T13:57:44.288Z,1.17
2019-05-30T14:00:15.462Z,1.27
2019-05-30T14:02:43.900Z,1.33
2019-05-30T14:05:13.102Z,1.37
2019-05-30T14:07:41.607Z,0.87
2019-05-30T14:10:11.188Z,0.80
2019-05-30T14:12:39.841Z,0.80
2019-05-30T14:15:14.063Z,1.00
2019-05-30T14:17:40.931Z,1.10
2019-05-30T14:20:11.266Z,1.23
2019-05-30T14:22:40.025Z,1.00
2019-05-30T14:25:10.009Z,0.97
2019-05-30T14:27:38.891Z,1.00
2019-05-30T14:30:09.194Z,1.00
2019-05-30T14:32:37.707Z,1.47
2019-05-30T14:35:08.495Z,1.30
2019-05-30T14:37:37.089Z,0.87
2019-05-30T14:40:14.189Z,0.97
2019-05-30T14:42:42.789Z,0.83
2019-05-30T14:45:14.535Z,1.17
2019-05-30T14:47:43.292Z,0.80
2019-05-30T14:50:13.182Z,0.97
2019-05-30T14:52:41.795Z,1.27
2019-05-30T14:55:13.084Z,0.90
2019-05-30T14:57:41.727Z,1.40
2019-05-30T15:00:13.652Z,1.20
2019-05-30T15:02:42.818Z,0.60
2019-05-30T15:05:11.815Z,0.73
2019-05-30T15:07:40.315Z,0.70
2019-05-30T15:10:10.523Z,0.70
2019-05-30T15:12:39.212Z,0.60
2019-05-30T15:15:12.413Z,0.60
2019-05-30T15:17:39.337Z,0.60
2019-05-30T15:20:10.261Z,0.50
2019-05-30T15:22:38.907Z,0.70
2019-05-30T15:25:08.196Z,0.60
2019-05-30T15:27:37.102Z,0.70
2019-05-30T15:30:10.620Z,0.80
2019-05-30T15:32:39.304Z,1.03
2019-05-30T15:35:08.883Z,0.60
2019-05-30T15:37:40.611Z,0.60
2019-05-30T15:40:08.892Z,0.60
2019-05-30T15:42:37.423Z,0.70
2019-05-30T15:45:09.758Z,0.80
2019-05-30T15:47:38.514Z,0.70
2019-05-30T15:50:10.510Z,1.00
2019-05-30T15:52:39.151Z,0.60
2019-05-30T15:55:09.274Z,0.90
2019-05-30T15:57:37.887Z,0.80
2019-05-30T16:00:12.253Z,0.80
2019-05-30T16:02:41.055Z,0.73
2019-05-30T16:05:10.484Z,0.77
2019-05-30T16:07:39.030Z,0.77
2019-05-30T16:10:08.433Z,0.90
2019-05-30T16:12:36.863Z,0.50
2019-05-30T16:15:08.419Z,1.00
2019-05-30T16:17:36.950Z,0.60
2019-05-30T16:20:08.793Z,0.70
2019-05-30T16:22:37.304Z,0.50
2019-05-30T16:25:07.230Z,0.80
2019-05-30T16:27:35.738Z,0.70
2019-05-30T16:30:06.581Z,0.60
2019-05-30T16:32:35.079Z,0.97
2019-05-30T16:35:04.457Z,0.63
2019-05-30T16:37:32.902Z,0.70
2019-05-30T16:40:06.298Z,0.50
2019-05-30T16:42:31.718Z,0.63
2019-05-30T16:45:00.156Z,0.57
2019-05-30T16:47:28.608Z,1.00
2019-05-30T16:49:57.049Z,0.53
2019-05-30T16:52:25.495Z,0.60
2019-05-30T16:54:53.960Z,0.63
2019-05-30T16:57:22.713Z,0.50
2019-05-30T16:59:51.250Z,0.70
2019-05-30T17:02:20.742Z,0.50
2019-05-30T17:04:49.337Z,0.80
2019-05-30T17:07:19.030Z,0.60
2019-05-30T17:09:47.774Z,0.40
2019-05-30T17:12:17.328Z,0.97
2019-05-30T17:14:46.025Z,0.60
2019-05-30T17:17:16.119Z,0.50
2019-05-30T17:19:44.859Z,0.50
2019-05-30T17:22:13.226Z,0.50
2019-05-30T17:24:41.742Z,0.70
2019-05-30T17:27:10.269Z,0.60
2019-05-30T17:29:38.706Z,0.50
2019-05-30T17:32:07.284Z,0.60
2019-05-30T17:34:35.715Z,0.40
2019-05-30T17:37:04.214Z,0.60
2019-05-30T17:39:32.758Z,0.80
2019-05-30T17:42:01.205Z,0.90
2019-05-30T17:44:29.914Z,0.50
2019-05-30T17:46:58.426Z,0.53
2019-05-30T17:49:27.865Z,0.50
2019-05-30T17:51:56.487Z,0.50
2019-05-30T17:54:25.998Z,0.77
2019-05-30T17:56:54.478Z,0.90
2019-05-30T17:59:24.251Z,0.57
2019-05-30T18:01:52.871Z,0.60
2019-05-30T18:04:22.471Z,0.63
2019-05-30T18:06:51.100Z,0.60
2019-05-30T18:09:20.768Z,0.70
2019-05-30T18:11:52.197Z,0.50
2019-05-30T18:14:19.522Z,0.53
2019-05-30T18:16:47.992Z,0.60
2019-05-30T18:19:16.559Z,0.50
2019-05-30T18:21:45.006Z,0.70
2019-05-30T18:24:13.534Z,0.50
2019-05-30T18:26:41.963Z,0.70
2019-05-30T18:29:10.461Z,0.60
2019-05-30T18:31:38.993Z,0.60
2019-05-30T18:34:07.500Z,0.70
2019-05-30T18:36:35.924Z,0.60
2019-05-30T18:46:02.554Z,0.50
2019-05-30T18:48:31.498Z,0.50
2019-05-30T18:51:00.088Z,0.70
2019-05-30T18:53:28.632Z,0.60
2019-05-30T18:55:57.103Z,0.63
2019-05-30T18:58:26.705Z,0.90
2019-05-30T19:00:55.422Z,0.60
2019-05-30T19:03:24.489Z,0.70
2019-05-30T19:05:53.212Z,0.60
2019-05-30T19:08:21.676Z,0.50
2019-05-30T19:10:50.180Z,0.70
2019-05-30T19:13:18.628Z,0.50
2019-05-30T19:15:47.210Z,0.60
2019-05-30T19:18:15.648Z,0.70
2019-05-30T19:20:44.089Z,0.80
2019-05-30T19:23:12.559Z,0.60
2019-05-30T19:25:41.004Z,0.80
2019-05-30T19:28:09.453Z,1.00
2019-05-30T19:30:41.002Z,0.50
2019-05-30T19:33:08.111Z,0.70
2019-05-30T19:35:37.514Z,0.70
2019-05-30T19:38:06.232Z,0.90
2019-05-30T19:40:35.851Z,1.10
2019-05-30T19:43:04.463Z,0.60
2019-05-30T19:45:34.073Z,0.67
2019-05-30T19:48:02.681Z,0.70
2019-05-30T19:50:31.116Z,0.63
2019-05-30T19:52:59.783Z,0.90
2019-05-30T19:55:29.088Z,1.00
2019-05-30T19:57:57.702Z,0.90
2019-05-30T20:00:26.394Z,0.70
2019-05-30T20:02:54.838Z,0.70
2019-05-30T20:05:23.358Z,1.00
2019-05-30T20:07:51.832Z,0.67
2019-05-30T20:10:21.417Z,0.70
2019-05-30T20:12:49.840Z,0.90
2019-05-30T20:15:18.830Z,0.83
2019-05-30T20:17:47.279Z,1.00
2019-05-30T20:20:16.412Z,0.80
2019-05-30T20:22:44.915Z,0.90
2019-05-30T20:25:15.185Z,1.00
2019-05-30T20:27:43.628Z,0.83
2019-05-30T20:30:14.010Z,0.60
2019-05-30T20:32:43.291Z,1.20
2019-05-30T20:35:12.190Z,0.60
2019-05-30T20:37:40.904Z,0.90
2019-05-30T20:40:10.458Z,0.80
2019-05-30T20:42:39.112Z,0.70
2019-05-30T20:45:10.052Z,1.10
2019-05-30T20:47:40.205Z,1.00
2019-05-30T20:50:09.924Z,0.70
2019-05-30T20:52:41.520Z,0.70
2019-05-30T20:55:10.154Z,0.90
2019-05-30T20:57:38.586Z,1.03
2019-05-30T21:00:09.269Z,0.60
2019-05-30T21:02:39.098Z,0.90
2019-05-30T21:05:08.581Z,0.77
2019-05-30T21:07:37.853Z,0.83
2019-05-30T21:10:08.527Z,1.23
2019-05-30T21:12:41.281Z,0.80
2019-05-30T21:15:08.496Z,0.80
2019-05-30T21:17:37.746Z,1.00
2019-05-30T21:20:11.133Z,0.90
2019-05-30T21:22:38.241Z,0.70
2019-05-30T21:25:08.117Z,0.63
2019-05-30T21:27:36.932Z,0.83
2019-05-30T21:30:09.051Z,0.80
2019-05-30T21:32:38.317Z,0.70
2019-05-30T21:35:08.232Z,0.90
2019-05-30T21:37:37.610Z,1.30
2019-05-30T21:40:08.082Z,0.90
2019-05-30T21:42:54.640Z,0.80
2019-05-30T21:45:08.047Z,1.23
2019-05-30T21:47:36.544Z,0.93
2019-05-30T21:50:06.883Z,0.70
2019-05-30T21:52:35.599Z,0.80
2019-05-30T21:55:07.558Z,0.90
2019-05-30T21:57:36.067Z,1.30
2019-05-30T22:00:10.532Z,0.80
2019-05-30T22:02:40.230Z,1.00
2019-05-30T22:05:09.085Z,0.97
2019-05-30T22:07:37.615Z,0.87
2019-05-30T22:10:06.391Z,1.07
2019-05-30T22:12:34.821Z,0.80
2019-05-30T22:15:03.363Z,1.20
2019-05-30T22:17:31.793Z,0.77
2019-05-30T22:20:00.228Z,0.73
2019-05-30T22:22:28.743Z,0.90
2019-05-30T22:24:57.254Z,0.70
2019-05-30T22:27:25.692Z,1.30
2019-05-30T22:29:54.153Z,0.70
2019-05-30T22:32:22.583Z,1.23
2019-05-30T22:34:53.001Z,1.30
2019-05-30T22:37:21.485Z,0.80
2019-05-30T22:39:50.942Z,0.87
2019-05-30T22:42:19.431Z,1.30
2019-05-30T22:44:48.041Z,0.70
2019-05-30T22:47:16.511Z,0.90
2019-05-30T22:49:44.946Z,0.80
2019-05-30T22:52:13.403Z,1.47
2019-05-30T22:54:41.848Z,1.10
2019-05-30T22:57:10.273Z,0.90
2019-05-30T22:59:38.821Z,1.10
2019-05-30T23:02:07.322Z,1.00
2019-05-30T23:04:35.753Z,1.10
2019-05-30T23:07:04.474Z,0.97
2019-05-30T23:09:32.903Z,0.70
2019-05-30T23:12:01.374Z,1.20
2019-05-30T23:14:29.826Z,1.10
2019-05-30T23:16:58.265Z,1.20
2019-05-30T23:19:26.689Z,0.90
2019-05-30T23:21:55.193Z,1.30
2019-05-30T23:24:23.617Z,1.20
2019-05-30T23:26:52.044Z,1.00
2019-05-30T23:29:20.514Z,0.80
2019-05-30T23:31:49.894Z,1.00
2019-05-30T23:34:18.438Z,1.00
2019-05-30T23:36:48.442Z,1.00
2019-05-30T23:39:16.985Z,1.03
2019-05-30T23:41:46.920Z,1.10
2019-05-30T23:44:15.450Z,1.13
2019-05-30T23:46:43.880Z,1.20
2019-05-30T23:49:12.316Z,1.47
2019-05-30T23:51:40.920Z,0.80
2019-05-30T23:54:09.349Z,1.20
2019-05-30T23:56:37.789Z,1.20
2019-05-30T23:59:06.417Z,1.10
